Time;durP1;ratioP1;P1;durP2;ratioP2;P2;SDS_P1;SDS_P2;PMS_P1;PMS_P2;Temp;Humidity;BMP_temperature;BMP_pressure;BME280_temperature;BME280_humidity;BME280_pressure;Samples;Min_cycle;Max_cycle;Signal;HPM_P1;HPM_P2
2023/01/31 00:00:04;;;;;;;4.35;1.58;;;17.60;50.70;;;;;;5113154;28;20165;-51
2023/01/31 00:02:30;;;;;;;3.42;1.42;;;17.60;50.70;;;;;;5112604;28;20177;-56
2023/01/31 00:04:55;;;;;;;4.82;2.15;;;17.50;50.70;;;;;;5112226;28;20169;-54
2023/01/31 00:07:21;;;;;;;3.70;1.60;;;17.50;50.70;;;;;;5112437;28;20632;-54
2023/01/31 00:09:46;;;;;;;4.05;1.50;;;17.50;50.70;;;;;;5112300;28;20173;-51
2023/01/31 00:12:12;;;;;;;3.42;1.83;;;17.50;50.70;;;;;;5112893;28;20212;-53
2023/01/31 00:14:37;;;;;;;3.70;1.58;;;17.50;50.80;;;;;;5116673;28;20180;-52
2023/01/31 00:17:03;;;;;;;4.97;1.90;;;17.40;50.70;;;;;;5115854;28;20177;-53
2023/01/31 00:19:28;;;;;;;3.10;1.63;;;17.40;50.80;;;;;;5116400;28;20248;-50
2023/01/31 00:21:54;;;;;;;3.03;1.60;;;17.40;50.80;;;;;;5116671;28;20624;-51
2023/01/31 00:24:19;;;;;;;3.90;1.83;;;17.40;50.80;;;;;;5115696;28;20173;-52
2023/01/31 00:26:47;;;;;;;4.50;1.48;;;17.40;50.80;;;;;;5116720;28;20208;-54
2023/01/31 00:29:12;;;;;;;3.03;1.52;;;17.30;50.80;;;;;;5116694;28;20218;-52
2023/01/31 00:31:38;;;;;;;3.55;1.77;;;17.30;50.80;;;;;;5115618;28;20719;-52
2023/01/31 00:34:04;;;;;;;4.95;2.03;;;17.30;50.80;;;;;;5116470;28;20173;-50
2023/01/31 00:36:31;;;;;;;8.30;2.05;;;17.30;50.80;;;;;;5115853;28;20546;-52
2023/01/31 00:38:58;;;;;;;4.85;1.73;;;17.20;50.70;;;;;;5115683;28;20256;-52
2023/01/31 00:41:24;;;;;;;3.20;1.73;;;17.20;50.80;;;;;;5116143;28;20549;-55
2023/01/31 00:43:50;;;;;;;3.42;1.75;;;17.20;50.70;;;;;;5116381;28;20169;-54
2023/01/31 00:46:16;;;;;;;4.35;1.85;;;17.20;50.80;;;;;;5115467;28;20170;-54
2023/01/31 00:48:41;;;;;;;3.03;1.90;;;17.20;50.80;;;;;;5115992;28;20173;-52
2023/01/31 00:51:07;;;;;;;4.65;1.65;;;17.20;50.80;;;;;;5115918;28;20226;-51
2023/01/31 00:53:33;;;;;;;3.90;1.75;;;17.20;50.80;;;;;;5115006;28;20180;-52
2023/01/31 00:56:05;;;;;;;4.07;2.22;;;17.20;50.90;;;;;;5116160;28;20274;-50
2023/01/31 00:58:30;;;;;;;4.03;1.85;;;17.10;50.90;;;;;;5115523;28;20692;-51
2023/01/31 01:00:56;;;;;;;4.10;2.00;;;17.10;50.90;;;;;;5115120;28;20205;-54
2023/01/31 01:03:21;;;;;;;4.07;1.77;;;17.10;50.90;;;;;;5097223;28;20259;-52
2023/01/31 01:05:47;;;;;;;3.35;1.70;;;17.10;50.90;;;;;;5115697;28;20310;-52
2023/01/31 01:08:12;;;;;;;3.28;1.67;;;17.10;50.90;;;;;;5115212;28;20214;-52
2023/01/31 01:10:38;;;;;;;4.95;1.95;;;17.10;50.90;;;;;;5115624;28;20256;-51
2023/01/31 01:13:06;;;;;;;4.80;2.60;;;17.10;50.80;;;;;;5114950;28;20651;-51
2023/01/31 01:15:32;;;;;;;4.78;1.73;;;17.00;50.80;;;;;;5115214;28;20176;-50
2023/01/31 01:17:57;;;;;;;5.50;1.98;;;17.00;50.80;;;;;;5115372;28;20220;-53
2023/01/31 01:20:23;;;;;;;5.78;1.95;;;17.00;50.80;;;;;;5114255;28;20184;-52
2023/01/31 01:22:48;;;;;;;3.58;1.60;;;17.00;50.80;;;;;;5115491;28;20173;-51
2023/01/31 01:25:14;;;;;;;4.45;2.15;;;17.00;50.80;;;;;;5115126;28;20177;-49
2023/01/31 01:27:39;;;;;;;5.22;1.95;;;17.00;50.80;;;;;;5114333;28;20173;-52
2023/01/31 01:30:06;;;;;;;4.45;1.85;;;17.00;50.80;;;;;;5115395;28;20272;-50
2023/01/31 01:32:32;;;;;;;5.10;1.90;;;16.90;50.70;;;;;;5114827;28;20694;-48
2023/01/31 01:34:57;;;;;;;3.80;1.50;;;16.90;50.70;;;;;;5114334;28;20169;-49
2023/01/31 01:37:23;;;;;;;3.75;2.13;;;16.90;50.70;;;;;;5114990;28;20173;-47
2023/01/31 01:39:48;;;;;;;2.83;1.50;;;16.90;50.70;;;;;;5115279;28;20180;-53
2023/01/31 01:42:15;;;;;;;2.83;1.63;;;16.90;50.70;;;;;;5114332;28;20253;-50
2023/01/31 01:44:48;;;;;;;5.43;1.77;;;16.90;50.70;;;;;;5114708;28;20199;-53
2023/01/31 01:47:17;;;;;;;3.53;1.73;;;16.90;50.70;;;;;;5115062;28;20173;-51
2023/01/31 01:49:43;;;;;;;4.10;1.90;;;16.80;50.60;;;;;;5096277;28;20188;-52
2023/01/31 01:52:08;;;;;;;3.28;1.63;;;16.80;50.60;;;;;;5096603;28;20212;-54
2023/01/31 01:54:38;;;;;;;3.92;1.90;;;16.80;50.60;;;;;;5114542;28;20176;-49
2023/01/31 01:57:04;;;;;;;4.22;2.33;;;16.80;50.60;;;;;;5079470;28;20208;-50
2023/01/31 01:59:36;;;;;;;4.05;2.38;;;16.80;50.60;;;;;;5096444;28;20169;-54
2023/01/31 02:02:02;;;;;;;3.80;1.83;;;16.80;50.60;;;;;;5114670;28;20177;-55
2023/01/31 02:04:31;;;;;;;4.15;1.90;;;16.80;50.60;;;;;;5095818;28;20177;-56
2023/01/31 02:06:56;;;;;;;3.88;2.08;;;16.80;50.60;;;;;;5096652;28;20718;-55
2023/01/31 02:09:34;;;;;;;3.53;1.80;;;16.70;50.60;;;;;;5078871;28;20264;-55
2023/01/31 02:12:00;;;;;;;5.10;2.15;;;16.80;50.60;;;;;;5096302;28;20671;-50
2023/01/31 02:14:25;;;;;;;2.95;1.60;;;16.70;50.50;;;;;;5114113;28;20198;-52
2023/01/31 02:16:51;;;;;;;5.28;2.28;;;16.70;50.50;;;;;;5113643;28;20352;-53
2023/01/31 02:19:30;;;;;;;3.40;1.77;;;16.70;50.50;;;;;;5114028;28;20231;-53
2023/01/31 02:22:13;;;;;;;3.53;1.60;;;16.70;50.60;;;;;;5097746;28;20184;-53
2023/01/31 02:25:03;;;;;;;5.03;1.92;;;16.70;50.50;;;;;;5113311;28;20173;-50
2023/01/31 02:27:47;;;;;;;3.33;2.05;;;16.70;50.50;;;;;;5095987;28;20252;-53
2023/01/31 02:30:31;;;;;;;3.38;2.10;;;16.70;50.50;;;;;;5079918;28;20212;-52
2023/01/31 02:33:18;;;;;;;4.82;1.80;;;16.70;50.60;;;;;;5096100;28;20224;-50
2023/01/31 02:36:03;;;;;;;3.10;1.77;;;16.60;50.50;;;;;;5113613;28;20180;-55
2023/01/31 02:38:42;;;;;;;3.20;1.88;;;16.60;50.50;;;;;;5095070;28;20187;-52
2023/01/31 02:41:19;;;;;;;3.45;2.00;;;16.60;50.50;;;;;;5096984;28;20198;-50
2023/01/31 02:47:10;;;;;;;2.13;1.33;;;16.60;50.60;;;;;;5112912;28;20184;-54
2023/01/31 02:49:47;;;;;;;2.85;1.70;;;16.60;50.50;;;;;;5074704;28;20601;-50
2023/01/31 02:52:15;;;;;;;2.72;1.50;;;16.60;50.50;;;;;;5095026;28;20204;-53
2023/01/31 02:57:44;;;;;;;4.20;1.90;;;16.60;50.50;;;;;;5113915;28;20257;-52
2023/01/31 03:00:10;;;;;;;3.45;1.75;;;16.50;50.50;;;;;;5094884;28;20627;-53
2023/01/31 03:02:36;;;;;;;4.53;2.38;;;16.50;50.50;;;;;;5113427;28;20172;-49
2023/01/31 03:05:02;;;;;;;3.65;1.83;;;16.50;50.60;;;;;;5114264;28;20510;-54
2023/01/31 03:07:31;;;;;;;2.88;1.60;;;16.50;50.50;;;;;;5112655;28;20639;-52
2023/01/31 03:10:14;;;;;;;2.70;1.40;;;16.50;50.50;;;;;;5079250;28;20245;-55
2023/01/31 03:13:21;;;;;;;4.32;2.30;;;16.50;50.50;;;;;;5112462;28;20295;-56
2023/01/31 03:18:48;;;;;;;3.80;2.05;;;16.50;50.50;;;;;;5113170;28;20228;-47
2023/01/31 03:21:20;;;;;;;4.40;2.22;;;16.50;50.50;;;;;;5094546;28;20251;-50
2023/01/31 03:23:48;;;;;;;3.95;2.13;;;16.50;50.50;;;;;;5113565;28;20181;-50
2023/01/31 03:26:14;;;;;;;4.53;1.98;;;16.50;50.50;;;;;;5078588;28;20176;-51
2023/01/31 03:28:41;;;;;;;4.32;2.08;;;16.50;50.50;;;;;;5094347;28;20711;-49
2023/01/31 03:31:13;;;;;;;3.70;2.35;;;16.40;50.40;;;;;;5095212;28;20194;-53
2023/01/31 03:33:42;;;;;;;3.28;1.95;;;16.40;50.50;;;;;;5094254;28;20195;-55
2023/01/31 03:36:26;;;;;;;3.90;2.17;;;16.40;50.50;;;;;;5095296;28;20259;-48
2023/01/31 03:39:09;;;;;;;3.58;1.73;;;16.40;50.50;;;;;;5113279;28;20264;-48
2023/01/31 03:41:56;;;;;;;3.50;1.75;;;16.40;50.40;;;;;;5112357;28;20173;-52
2023/01/31 03:44:44;;;;;;;5.88;1.95;;;16.40;50.50;;;;;;5112963;28;20181;-52
2023/01/31 03:47:16;;;;;;;2.65;1.45;;;16.40;50.50;;;;;;5097588;28;20205;-55
2023/01/31 03:49:41;;;;;;;4.00;1.80;;;16.40;50.50;;;;;;5081751;28;20563;-52
2023/01/31 03:52:07;;;;;;;2.95;1.80;;;16.40;50.40;;;;;;5117279;28;20215;-54
2023/01/31 03:54:36;;;;;;;4.35;1.83;;;16.40;50.40;;;;;;5116983;28;20238;-49
2023/01/31 03:57:06;;;;;;;4.32;1.60;;;16.40;50.40;;;;;;5081844;28;20206;-51
2023/01/31 03:59:35;;;;;;;3.22;1.75;;;16.30;50.40;;;;;;5082576;28;20222;-52
2023/01/31 04:02:00;;;;;;;4.22;2.17;;;16.30;50.40;;;;;;5098284;28;20200;-52
2023/01/31 04:04:48;;;;;;;3.28;1.98;;;16.30;50.40;;;;;;5098614;28;20632;-51
2023/01/31 04:07:13;;;;;;;3.08;1.70;;;16.30;50.40;;;;;;5083479;28;20226;-55
2023/01/31 04:09:39;;;;;;;3.47;1.90;;;16.30;50.40;;;;;;5116068;28;20169;-54
2023/01/31 04:12:05;;;;;;;2.60;1.80;;;16.30;50.40;;;;;;5098963;28;20212;-51
2023/01/31 04:14:30;;;;;;;2.65;1.92;;;16.30;50.40;;;;;;5116577;28;20263;-52
2023/01/31 04:16:56;;;;;;;2.30;1.77;;;16.30;50.40;;;;;;5116210;28;20204;-54
2023/01/31 04:19:21;;;;;;;3.38;2.13;;;16.20;50.40;;;;;;5116396;28;20216;-53
2023/01/31 04:21:47;;;;;;;6.47;1.90;;;16.30;50.40;;;;;;5116610;28;20173;-50
2023/01/31 04:24:12;;;;;;;3.72;1.90;;;16.20;50.40;;;;;;5116086;28;20256;-50
2023/01/31 04:26:38;;;;;;;3.30;1.60;;;16.20;50.40;;;;;;5116432;28;20596;-51
2023/01/31 04:29:04;;;;;;;4.07;2.05;;;16.20;50.40;;;;;;5116661;28;20589;-49
2023/01/31 04:31:29;;;;;;;4.28;1.77;;;16.20;50.40;;;;;;5115324;28;20205;-50
2023/01/31 04:33:56;;;;;;;3.25;1.77;;;16.20;50.40;;;;;;5116474;28;20231;-52
2023/01/31 04:36:23;;;;;;;4.93;1.95;;;16.20;50.40;;;;;;5115926;28;20578;-54
2023/01/31 04:38:48;;;;;;;4.88;2.30;;;16.20;50.40;;;;;;5115803;28;20215;-51
2023/01/31 04:41:14;;;;;;;4.32;2.22;;;16.20;50.50;;;;;;5116485;28;20181;-51
2023/01/31 04:43:39;;;;;;;3.65;2.08;;;16.20;50.40;;;;;;5115725;28;20177;-54
2023/01/31 04:46:05;;;;;;;4.80;2.03;;;16.20;50.50;;;;;;5115490;28;20568;-55
2023/01/31 04:48:30;;;;;;;4.43;2.13;;;16.10;50.40;;;;;;5115871;28;20541;-53
2023/01/31 04:50:56;;;;;;;4.07;2.13;;;16.20;50.40;;;;;;5116054;28;20574;-48
2023/01/31 04:53:21;;;;;;;6.72;2.13;;;16.10;50.40;;;;;;5115155;28;20277;-52
2023/01/31 04:55:47;;;;;;;7.28;2.60;;;16.20;50.40;;;;;;5116160;28;20662;-51
2023/01/31 04:58:12;;;;;;;5.45;2.20;;;16.10;50.40;;;;;;5114589;28;20632;-52
2023/01/31 05:00:38;;;;;;;3.42;2.20;;;16.10;50.30;;;;;;5115615;28;20245;-51
2023/01/31 05:03:04;;;;;;;5.15;2.20;;;16.10;50.30;;;;;;5115773;28;20169;-50
2023/01/31 05:05:29;;;;;;;4.32;2.15;;;16.10;50.30;;;;;;5114719;28;20176;-55
2023/01/31 05:07:55;;;;;;;3.50;1.70;;;16.10;50.50;;;;;;5115881;28;20536;-53
2023/01/31 05:10:20;;;;;;;2.78;1.90;;;16.10;50.50;;;;;;5115652;28;20222;-50
2023/01/31 05:12:46;;;;;;;3.95;2.00;;;16.10;50.40;;;;;;5114827;28;20321;-54
2023/01/31 05:15:11;;;;;;;6.47;2.97;;;16.00;50.30;;;;;;5115674;28;20264;-53
2023/01/31 05:17:37;;;;;;;3.90;2.22;;;16.00;50.30;;;;;;5115080;28;20307;-50
2023/01/31 05:20:03;;;;;;;4.50;1.83;;;16.00;50.30;;;;;;5114830;28;20173;-53
2023/01/31 05:22:29;;;;;;;5.60;2.10;;;16.00;50.30;;;;;;5115278;28;20178;-53
2023/01/31 05:24:54;;;;;;;4.72;2.60;;;16.00;50.30;;;;;;5115211;28;20173;-54
2023/01/31 05:27:20;;;;;;;4.90;2.03;;;16.00;50.30;;;;;;5114408;28;20269;-53
2023/01/31 05:29:45;;;;;;;5.38;2.22;;;16.00;50.30;;;;;;5115418;28;20161;-55
2023/01/31 05:32:11;;;;;;;5.80;2.60;;;16.00;50.30;;;;;;5115232;28;20233;-55
2023/01/31 05:34:36;;;;;;;3.60;2.10;;;16.00;50.40;;;;;;5114276;28;20180;-56
2023/01/31 05:37:02;;;;;;;4.07;2.20;;;16.00;50.40;;;;;;5115247;28;20252;-57
2023/01/31 05:39:28;;;;;;;3.90;2.28;;;16.00;50.40;;;;;;5114838;28;20185;-53
2023/01/31 05:41:53;;;;;;;4.43;2.50;;;16.00;50.40;;;;;;5114486;28;20268;-54
2023/01/31 05:44:19;;;;;;;3.58;2.10;;;15.90;50.40;;;;;;5114728;28;20180;-52
2023/01/31 05:46:45;;;;;;;5.15;2.53;;;15.90;50.40;;;;;;5114989;28;20185;-51
2023/01/31 05:49:11;;;;;;;4.40;2.45;;;15.90;50.40;;;;;;5114098;28;20636;-51
2023/01/31 05:51:36;;;;;;;6.35;2.85;;;15.90;50.40;;;;;;5114730;28;20544;-50
2023/01/31 05:54:02;;;;;;;5.30;2.65;;;15.90;50.30;;;;;;5114976;28;20644;-51
2023/01/31 05:56:27;;;;;;;5.00;2.65;;;15.90;50.30;;;;;;5114040;28;20180;-50
2023/01/31 05:58:53;;;;;;;4.85;2.53;;;15.90;50.30;;;;;;5114535;28;20580;-51
2023/01/31 06:01:19;;;;;;;4.85;2.25;;;15.90;50.40;;;;;;5113974;28;20689;-56
2023/01/31 06:03:45;;;;;;;4.75;2.45;;;15.90;50.50;;;;;;5114478;28;20184;-50
2023/01/31 06:06:11;;;;;;;5.43;2.42;;;15.90;50.40;;;;;;5114826;28;20165;-51
2023/01/31 06:08:36;;;;;;;5.82;2.67;;;15.90;50.40;;;;;;5113469;28;20665;-54
2023/01/31 06:11:03;;;;;;;3.55;2.70;;;15.90;50.40;;;;;;5113439;28;20169;-52
2023/01/31 06:13:32;;;;;;;5.45;2.63;;;15.80;50.30;;;;;;5114187;28;20212;-52
2023/01/31 06:15:57;;;;;;;3.15;1.88;;;15.90;50.40;;;;;;5113716;28;20264;-49
2023/01/31 06:18:23;;;;;;;5.53;2.47;;;15.80;50.30;;;;;;5113776;28;20378;-55
2023/01/31 06:20:49;;;;;;;5.18;2.65;;;15.80;50.40;;;;;;5114573;28;20180;-55
2023/01/31 06:23:14;;;;;;;5.93;2.40;;;15.80;50.40;;;;;;5113704;28;20169;-55
2023/01/31 06:25:40;;;;;;;3.70;2.33;;;15.80;50.50;;;;;;5114117;28;20176;-53
2023/01/31 06:28:05;;;;;;;5.30;2.58;;;15.80;50.40;;;;;;5114297;28;20180;-50
2023/01/31 06:30:31;;;;;;;5.60;2.40;;;15.80;50.50;;;;;;5113205;28;20200;-50
2023/01/31 06:33:00;;;;;;;6.05;2.78;;;15.80;50.50;;;;;;5113864;28;20656;-49
2023/01/31 06:35:25;;;;;;;4.50;2.50;;;15.80;50.50;;;;;;5113966;28;20199;-54
2023/01/31 06:37:51;;;;;;;5.05;2.67;;;15.80;50.50;;;;;;5113302;28;20173;-52
2023/01/31 06:40:16;;;;;;;5.60;2.88;;;15.80;50.50;;;;;;5113900;28;20161;-52
2023/01/31 06:42:42;;;;;;;6.07;3.20;;;15.80;50.40;;;;;;5114012;28;20173;-54
2023/01/31 06:45:08;;;;;;;5.32;2.70;;;15.80;50.40;;;;;;5113045;28;20226;-52
2023/01/31 06:47:34;;;;;;;4.88;2.50;;;15.80;50.50;;;;;;5113577;28;20183;-53
2023/01/31 06:49:59;;;;;;;6.85;2.67;;;15.70;50.50;;;;;;5113888;28;20566;-50
2023/01/31 06:52:25;;;;;;;4.93;2.47;;;15.70;50.40;;;;;;5112900;28;20205;-54
2023/01/31 06:54:50;;;;;;;4.30;2.30;;;15.70;50.50;;;;;;5113938;28;20631;-49
2023/01/31 06:57:16;;;;;;;4.55;2.50;;;15.70;50.40;;;;;;5113602;28;20525;-51
2023/01/31 06:59:41;;;;;;;4.55;2.25;;;15.70;50.50;;;;;;5112912;28;20635;-51
2023/01/31 07:02:08;;;;;;;5.07;2.42;;;15.70;50.50;;;;;;5113461;28;20173;-52
2023/01/31 07:04:34;;;;;;;6.50;2.97;;;15.80;50.50;;;;;;5113242;28;20623;-54
2023/01/31 07:07:00;;;;;;;7.25;2.60;;;15.80;50.40;;;;;;5113062;28;20260;-54
2023/01/31 07:09:25;;;;;;;4.28;2.20;;;15.90;50.40;;;;;;5113280;28;20176;-52
2023/01/31 07:11:51;;;;;;;5.53;2.90;;;16.00;50.30;;;;;;5112722;28;20304;-51
2023/01/31 07:14:16;;;;;;;4.10;2.47;;;16.00;50.30;;;;;;5113589;28;20256;-51
2023/01/31 07:16:42;;;;;;;5.20;2.05;;;16.00;50.20;;;;;;5113384;28;20173;-52
2023/01/31 07:19:07;;;;;;;5.68;2.53;;;16.10;50.20;;;;;;5112529;28;20271;-52
2023/01/31 07:21:34;;;;;;;4.68;2.20;;;16.30;50.10;;;;;;5112860;28;20572;-50
2023/01/31 07:24:00;;;;;;;4.13;2.20;;;16.40;50.00;;;;;;5113588;28;20181;-50
2023/01/31 07:26:25;;;;;;;4.20;2.67;;;16.60;49.90;;;;;;5112257;28;20654;-49
2023/01/31 07:28:51;;;;;;;3.35;1.95;;;16.70;49.70;;;;;;5113458;28;20187;-51
2023/01/31 07:31:17;;;;;;;5.25;2.40;;;16.80;49.50;;;;;;5112963;28;20588;-50
2023/01/31 07:33:42;;;;;;;5.03;2.42;;;16.90;49.40;;;;;;5112737;28;20234;-66
2023/01/31 07:36:10;;;;;;;7.63;2.70;;;17.00;49.20;;;;;;5113417;28;20165;-64
2023/01/31 07:38:36;;;;;;;4.78;2.40;;;17.00;49.40;;;;;;5112960;28;21102;-66
2023/01/31 07:41:02;;;;;;;4.20;2.38;;;17.10;49.80;;;;;;5112184;28;20196;-74
2023/01/31 07:43:28;;;;;;;6.10;2.95;;;17.10;50.10;;;;;;5095034;28;20211;-65
2023/01/31 07:45:54;;;;;;;6.03;2.60;;;17.10;50.30;;;;;;5113260;28;20201;-71
2023/01/31 07:48:25;;;;;;;5.10;2.58;;;17.20;50.90;;;;;;5112209;28;20195;-66
2023/01/31 07:50:51;;;;;;;5.70;2.50;;;17.20;50.40;;;;;;5113239;28;20185;-64
2023/01/31 07:53:17;;;;;;;5.38;2.63;;;17.30;50.80;;;;;;5112911;28;20265;-62
2023/01/31 07:55:46;;;;;;;4.63;2.28;;;17.40;50.40;;;;;;5112363;28;20173;-62
2023/01/31 07:58:14;;;;;;;3.47;2.30;;;17.40;50.30;;;;;;5112828;28;20169;-62
2023/01/31 08:03:32;;;;;;;4.15;2.25;;;17.40;50.30;;;;;;5112852;28;20173;-62
2023/01/31 08:06:02;;;;;;;5.20;2.17;;;17.50;50.30;;;;;;5113062;28;20224;-65
2023/01/31 08:08:28;;;;;;;6.00;2.47;;;17.40;50.20;;;;;;5093708;28;20199;-64
2023/01/31 08:10:54;;;;;;;3.38;2.30;;;17.50;50.30;;;;;;5112932;28;20174;-63
2023/01/31 08:13:21;;;;;;;4.65;2.20;;;17.60;50.10;;;;;;5112556;28;20666;-66
2023/01/31 08:15:46;;;;;;;4.03;2.13;;;17.50;50.00;;;;;;5112317;28;20173;-64
2023/01/31 08:18:12;;;;;;;5.50;2.38;;;17.50;50.70;;;;;;5112786;28;20228;-63
2023/01/31 08:20:37;;;;;;;5.20;2.47;;;17.40;50.20;;;;;;5112460;28;20169;-64
2023/01/31 08:23:03;;;;;;;3.83;2.22;;;17.40;50.20;;;;;;5112073;28;20252;-63
2023/01/31 08:25:29;;;;;;;4.38;2.63;;;17.30;50.30;;;;;;5112477;28;20169;-64
2023/01/31 08:27:56;;;;;;;4.35;2.50;;;17.20;50.30;;;;;;5112970;28;20530;-64
2023/01/31 08:30:22;;;;;;;3.25;2.10;;;17.10;50.40;;;;;;5111891;28;20177;-64
2023/01/31 08:32:47;;;;;;;6.40;2.65;;;17.10;50.50;;;;;;5112915;28;20213;-64
2023/01/31 08:35:13;;;;;;;5.65;2.95;;;17.10;50.50;;;;;;5116066;28;20630;-63
2023/01/31 08:37:38;;;;;;;4.72;2.72;;;17.10;50.40;;;;;;5115356;28;20173;-64
2023/01/31 08:40:13;;;;;;;6.28;2.33;;;17.10;50.30;;;;;;5116266;28;20515;-65
2023/01/31 08:42:39;;;;;;;6.45;2.55;;;17.20;50.30;;;;;;5116219;28;20183;-63
2023/01/31 08:45:06;;;;;;;4.75;2.40;;;17.20;50.30;;;;;;5115632;28;20161;-65
2023/01/31 08:47:32;;;;;;;4.47;2.38;;;17.20;50.20;;;;;;5115831;28;20545;-66
2023/01/31 08:49:57;;;;;;;5.45;2.47;;;17.20;50.10;;;;;;5116194;28;20218;-65
2023/01/31 08:52:23;;;;;;;4.18;2.10;;;17.20;50.20;;;;;;5115045;28;20208;-65
2023/01/31 08:54:48;;;;;;;4.75;2.20;;;17.20;50.30;;;;;;5116100;28;20165;-65
2023/01/31 08:57:14;;;;;;;4.47;2.47;;;17.10;50.30;;;;;;5115501;28;20165;-65
2023/01/31 08:59:39;;;;;;;3.47;2.40;;;17.10;50.30;;;;;;5115230;28;20177;-66
2023/01/31 09:02:05;;;;;;;5.78;2.33;;;17.00;50.30;;;;;;5115988;28;20176;-66
2023/01/31 09:04:30;;;;;;;3.70;2.13;;;17.00;50.50;;;;;;5115081;28;20189;-67
2023/01/31 09:06:56;;;;;;;3.75;2.15;;;17.00;50.40;;;;;;5115949;28;20173;-66
2023/01/31 09:09:21;;;;;;;5.05;2.83;;;17.00;50.40;;;;;;5115590;28;20169;-64
2023/01/31 09:11:47;;;;;;;5.03;2.10;;;17.10;50.40;;;;;;5115085;28;20202;-65
2023/01/31 09:14:13;;;;;;;6.57;2.50;;;17.10;50.40;;;;;;5115749;28;20200;-65
2023/01/31 09:16:38;;;;;;;4.72;2.55;;;17.10;50.30;;;;;;5115413;28;20180;-66
2023/01/31 09:19:04;;;;;;;4.53;2.33;;;17.10;50.30;;;;;;5114648;28;20217;-65
2023/01/31 09:21:29;;;;;;;4.47;2.47;;;17.10;50.30;;;;;;5115220;28;20538;-65
2023/01/31 09:23:56;;;;;;;4.70;2.63;;;17.10;50.30;;;;;;5115543;28;20169;-65
2023/01/31 09:26:22;;;;;;;5.40;2.42;;;17.00;50.30;;;;;;5114582;28;20169;-65
2023/01/31 09:28:49;;;;;;;5.75;2.47;;;16.90;50.30;;;;;;5115589;28;20592;-65
2023/01/31 09:31:16;;;;;;;5.20;2.83;;;16.90;50.50;;;;;;5115217;28;20526;-65
2023/01/31 09:33:42;;;;;;;4.65;2.53;;;16.90;50.60;;;;;;5114389;28;20264;-65
2023/01/31 09:36:09;;;;;;;5.10;2.70;;;16.90;50.60;;;;;;5115171;28;20289;-65
2023/01/31 09:38:35;;;;;;;4.57;2.25;;;16.90;50.50;;;;;;5114868;28;20267;-65
2023/01/31 09:41:03;;;;;;;4.47;2.35;;;17.00;50.50;;;;;;5114648;28;20666;-65
2023/01/31 09:43:35;;;;;;;3.55;2.35;;;17.00;50.50;;;;;;5114640;28;20230;-65
2023/01/31 09:46:02;;;;;;;4.47;2.08;;;17.10;50.50;;;;;;5080258;28;20176;-65
2023/01/31 09:48:29;;;;;;;5.38;2.20;;;17.00;50.40;;;;;;5114011;28;20173;-64
2023/01/31 09:50:55;;;;;;;4.47;1.98;;;17.00;50.40;;;;;;5096715;28;20173;-65
2023/01/31 09:53:22;;;;;;;4.20;1.90;;;17.00;50.40;;;;;;5114744;28;20724;-64
2023/01/31 09:56:09;;;;;;;4.40;2.30;;;17.00;50.50;;;;;;5096205;28;20172;-65
2023/01/31 09:58:41;;;;;;;3.92;2.35;;;16.90;50.50;;;;;;5114820;28;20180;-65
2023/01/31 10:01:26;;;;;;;4.93;2.83;;;16.80;50.40;;;;;;5096030;28;20176;-65
2023/01/31 10:03:57;;;;;;;5.30;2.50;;;16.90;50.60;;;;;;5096562;28;20181;-65
2023/01/31 10:06:28;;;;;;;4.43;2.30;;;16.90;50.60;;;;;;5114460;28;20223;-66
2023/01/31 10:09:01;;;;;;;4.20;2.20;;;16.90;50.50;;;;;;5096600;28;20173;-65
2023/01/31 10:11:42;;;;;;;4.15;2.33;;;16.90;50.50;;;;;;5114228;28;20181;-66
2023/01/31 10:14:29;;;;;;;4.10;2.10;;;16.90;50.50;;;;;;5096443;28;20203;-65
2023/01/31 10:16:59;;;;;;;5.22;2.38;;;17.00;50.70;;;;;;5095221;28;20173;-65
2023/01/31 10:19:27;;;;;;;3.90;2.15;;;17.00;50.40;;;;;;5095815;28;20303;-66
2023/01/31 10:21:56;;;;;;;3.65;2.15;;;17.00;50.40;;;;;;5113466;28;20859;-66
2023/01/31 10:24:38;;;;;;;4.25;2.10;;;16.90;50.30;;;;;;5112615;28;20184;-65
2023/01/31 10:27:14;;;;;;;5.10;2.70;;;16.90;50.40;;;;;;5097943;28;20209;-66
2023/01/31 10:29:42;;;;;;;4.18;2.05;;;16.90;50.30;;;;;;5079584;28;20173;-65
2023/01/31 10:32:27;;;;;;;4.80;2.22;;;16.80;50.40;;;;;;5095957;28;20752;-65
2023/01/31 10:34:56;;;;;;;3.83;2.50;;;16.90;50.40;;;;;;5112222;28;20191;-65
2023/01/31 10:37:27;;;;;;;5.82;2.70;;;16.90;50.30;;;;;;5094824;28;20173;-65
2023/01/31 10:39:54;;;;;;;3.15;1.98;;;16.90;50.30;;;;;;5095561;28;20173;-65
2023/01/31 10:42:23;;;;;;;3.60;2.40;;;17.00;50.20;;;;;;5095571;28;20173;-64
2023/01/31 10:44:52;;;;;;;4.07;2.25;;;17.00;50.00;;;;;;5113066;28;20614;-64
2023/01/31 10:47:21;;;;;;;5.65;2.45;;;17.10;50.00;;;;;;5113478;28;20661;-65
2023/01/31 10:49:48;;;;;;;5.25;2.40;;;17.10;50.00;;;;;;5094771;28;20177;-65
2023/01/31 10:52:48;;;;;;;6.25;2.55;;;17.00;50.00;;;;;;5095790;28;20213;-64
2023/01/31 10:55:38;;;;;;;5.95;2.22;;;17.00;49.90;;;;;;5098526;28;20169;-65
2023/01/31 10:58:03;;;;;;;5.43;2.20;;;17.00;50.00;;;;;;5112603;28;20181;-64
2023/01/31 11:00:30;;;;;;;4.75;2.13;;;16.90;50.10;;;;;;5113452;28;20170;-65
2023/01/31 11:02:56;;;;;;;5.70;2.42;;;16.90;50.10;;;;;;5078963;28;20187;-66
2023/01/31 11:05:23;;;;;;;5.13;2.63;;;17.00;50.10;;;;;;5094316;28;20243;-65
2023/01/31 11:07:49;;;;;;;5.95;2.55;;;17.00;50.00;;;;;;5094509;28;20274;-65
2023/01/31 11:10:27;;;;;;;7.57;3.05;;;17.10;50.00;;;;;;5113515;28;20180;-65
2023/01/31 11:13:06;;;;;;;4.93;2.30;;;17.10;49.90;;;;;;5112860;28;20300;-65
2023/01/31 11:15:38;;;;;;;4.22;2.33;;;17.10;49.80;;;;;;5113075;28;20173;-66
2023/01/31 11:18:04;;;;;;;4.72;2.42;;;17.10;49.80;;;;;;5112619;28;20286;-65
2023/01/31 11:20:34;;;;;;;4.97;2.40;;;17.10;49.80;;;;;;5112941;28;20173;-65
2023/01/31 11:23:00;;;;;;;4.00;2.53;;;17.10;49.90;;;;;;5094984;28;20244;-66
2023/01/31 11:25:26;;;;;;;4.55;2.42;;;17.00;49.90;;;;;;5112273;28;20663;-64
2023/01/31 11:27:53;;;;;;;4.85;2.60;;;17.00;50.00;;;;;;5113369;28;20177;-67
2023/01/31 11:30:27;;;;;;;6.43;2.10;;;17.00;50.00;;;;;;5094913;28;20207;-67
2023/01/31 11:32:53;;;;;;;5.97;2.45;;;17.00;50.10;;;;;;5077674;28;20255;-67
2023/01/31 11:35:18;;;;;;;4.15;2.28;;;17.00;50.20;;;;;;5112904;28;20204;-66
2023/01/31 11:37:54;;;;;;;4.28;2.25;;;17.00;50.20;;;;;;5113108;28;20177;-68
2023/01/31 11:40:26;;;;;;;3.65;2.05;;;17.10;50.30;;;;;;5112067;28;20650;-66
2023/01/31 11:42:56;;;;;;;4.45;2.22;;;17.10;50.40;;;;;;5112976;28;20184;-63
2023/01/31 11:45:27;;;;;;;5.75;2.45;;;17.10;50.40;;;;;;5113006;28;20231;-63
2023/01/31 11:48:16;;;;;;;6.32;2.65;;;17.00;50.50;;;;;;5094476;28;20169;-62
2023/01/31 11:50:49;;;;;;;5.45;2.30;;;17.00;50.50;;;;;;5099155;28;20193;-63
2023/01/31 11:53:48;;;;;;;6.18;2.45;;;17.00;50.60;;;;;;5112243;28;20741;-63
2023/01/31 11:56:18;;;;;;;4.70;2.50;;;17.00;51.30;;;;;;5057644;28;20280;-62
2023/01/31 11:58:44;;;;;;;4.47;2.30;;;17.00;50.70;;;;;;5112979;28;20691;-63
2023/01/31 12:01:17;;;;;;;3.40;2.17;;;17.00;50.80;;;;;;5094486;28;20177;-63
2023/01/31 12:03:58;;;;;;;4.28;2.05;;;17.10;50.90;;;;;;5112988;28;20200;-63
2023/01/31 12:06:30;;;;;;;5.78;2.50;;;17.10;50.80;;;;;;5079016;28;20546;-63
2023/01/31 12:08:56;;;;;;;5.85;2.17;;;17.10;50.80;;;;;;5097268;28;20173;-64
2023/01/31 12:11:34;;;;;;;4.25;2.03;;;17.10;50.70;;;;;;5117628;28;20226;-67
2023/01/31 12:14:13;;;;;;;4.13;2.25;;;17.10;50.80;;;;;;5119678;28;20257;-65
2023/01/31 12:16:38;;;;;;;5.72;2.40;;;17.00;50.90;;;;;;5098477;28;20189;-68
2023/01/31 12:19:11;;;;;;;5.60;2.17;;;17.00;51.00;;;;;;5116688;28;20223;-64
2023/01/31 12:21:46;;;;;;;5.50;2.05;;;17.00;51.10;;;;;;5097696;28;20180;-65
2023/01/31 12:24:42;;;;;;;4.47;2.15;;;17.00;51.10;;;;;;5116436;28;20646;-63
2023/01/31 12:27:30;;;;;;;7.72;2.20;;;17.00;51.20;;;;;;5116329;28;20165;-66
2023/01/31 12:30:08;;;;;;;4.45;2.10;;;17.10;51.20;;;;;;5115896;28;20616;-65
2023/01/31 12:32:49;;;;;;;5.40;2.47;;;17.00;51.20;;;;;;5098194;28;20693;-66
2023/01/31 12:35:55;;;;;;;5.53;2.20;;;17.00;51.10;;;;;;5115548;28;20184;-66
2023/01/31 12:38:34;;;;;;;4.68;2.03;;;17.00;51.10;;;;;;5097941;28;20169;-66
2023/01/31 12:41:30;;;;;;;4.70;2.30;;;17.00;51.10;;;;;;5116363;28;20173;-66
2023/01/31 12:44:37;;;;;;;5.45;2.85;;;17.00;51.10;;;;;;5115512;28;20215;-65
2023/01/31 12:47:46;;;;;;;6.60;2.47;;;16.90;51.10;;;;;;5062238;28;20180;-65
2023/01/31 12:50:21;;;;;;;7.45;2.33;;;16.90;51.20;;;;;;5049999;28;20189;-64
2023/01/31 12:53:09;;;;;;;5.78;2.47;;;16.90;51.30;;;;;;5095642;28;20683;-65
2023/01/31 12:55:46;;;;;;;3.67;2.10;;;16.90;51.30;;;;;;5079885;28;20174;-65
2023/01/31 12:58:41;;;;;;;3.92;1.95;;;16.90;51.30;;;;;;5076935;28;20197;-64
2023/01/31 13:01:15;;;;;;;4.35;2.03;;;16.90;51.20;;;;;;5080615;28;20184;-65
2023/01/31 13:04:12;;;;;;;5.18;2.03;;;16.90;51.20;;;;;;5076738;28;20173;-66
2023/01/31 13:06:40;;;;;;;5.32;1.80;;;16.90;51.30;;;;;;5063410;28;20169;-65
2023/01/31 13:09:22;;;;;;;4.57;2.10;;;16.80;51.20;;;;;;5077612;28;20572;-65
2023/01/31 13:11:57;;;;;;;3.65;2.05;;;16.80;51.30;;;;;;5060488;28;20698;-66